Eau Claire, WI (54703)

6:00 AM CDT on August 26, 2016 (GMT -0500)
North Side Hill | | Change Station

Elev 869 ft 44.82 °N, 91.50 °W | Updated 3 minutes ago

Clear
Clear
56.5 °F
Feels Like 56.5 °F
N
0.0
Wind Variable Wind from SW

Today
High -- | Low -- °F
--% Chance of Precip.
Yesterday
High -- | Low -- °F
Precip. -- in
Pressure 30.14 in
Visibility 10.0 miles
Clouds Clear
Dew Point 4 °F
Humidity 12%
Rainfall 0.00 in
Snow Depth Not available.
6:21 AM 7:52 PM
Waning Crescent, 35% visible
METAR KEAU 261056Z 26003KT 10SM CLR 12/12 A3014 RMK AO2 SLP204 T01220117
Pressure 30.14 in
Visibility 10.0 miles
Clouds Clear
Dew Point 4 °F
Humidity 12%
Rainfall 0.00 in
Snow Depth Not available.
6:21 AM 7:52 PM
Waning Crescent, 35% visible
METAR KEAU 261056Z 26003KT 10SM CLR 12/12 A3014 RMK AO2 SLP204 T01220117

10-Day Weather Forecast

Almanac

Astronomy

Aug. 26, 2016 Rise Set
Actual Time
Civil Twilight
Nautical Twilight
Astronomical Twilight
Moon
Length of Visible Light
Length of Day
Tomorrow will be .
, % of the Moon is Illuminated

Today's Extremes

State Highs State Lows

Community

WunderPhotos

Upload Photos

1,935,069 photos uploaded!

WunderBlog® & News

Nearby

Air Quality

  Air Quality AQ Index Pollutant
Not available.

Snow Depth

Station Depth Elevation

Earthquake Activity

City Distance Mag. Time & Date
Minimum magnitude displayed is 2.5.

Coastal Water Temperatures

Place Temperature

Stations

Nearby Weather Stations

Station Location Temp. Windchill Dew Point Humidity Wind Precip. Elev Updated Type
                   

Watches & Warnings

There are currently no watches in effect.